createdAt,value
2022-07-25T00:02:07.398Z,100.00
2022-07-25T00:04:35.847Z,100.00
2022-07-25T00:07:03.177Z,100.00
2022-07-25T00:09:29.927Z,100.00
2022-07-25T00:11:56.722Z,100.00
2022-07-25T00:14:23.479Z,100.00
2022-07-25T00:16:50.262Z,100.00
2022-07-25T00:19:17.277Z,100.00
2022-07-25T00:21:44.871Z,100.00
2022-07-25T00:24:11.631Z,100.00
2022-07-25T00:26:40.422Z,100.00
2022-07-25T00:29:07.704Z,100.00
2022-07-25T00:31:34.627Z,100.00
2022-07-25T00:34:01.833Z,100.00
2022-07-25T00:36:28.700Z,100.00
2022-07-25T00:38:55.501Z,100.00
2022-07-25T00:41:22.331Z,100.00
2022-07-25T00:43:49.164Z,100.00
2022-07-25T00:46:18.898Z,100.00
2022-07-25T00:48:46.518Z,100.00
2022-07-25T00:51:13.678Z,100.00
2022-07-25T00:53:40.523Z,100.00
2022-07-25T00:56:07.900Z,100.00
2022-07-25T00:58:34.703Z,100.00
2022-07-25T01:01:02.336Z,100.00
2022-07-25T01:03:29.249Z,100.00
2022-07-25T01:05:55.984Z,100.00
2022-07-25T01:08:23.023Z,100.00
2022-07-25T01:10:50.380Z,100.00
2022-07-25T01:13:17.244Z,100.00
2022-07-25T01:15:44.110Z,100.00
2022-07-25T01:18:11.478Z,100.00
2022-07-25T01:20:38.361Z,100.00
2022-07-25T01:23:05.222Z,100.00
2022-07-25T01:25:32.020Z,100.00
2022-07-25T01:27:58.888Z,100.00
2022-07-25T01:30:25.910Z,100.00
2022-07-25T01:32:53.176Z,100.00
2022-07-25T01:35:20.373Z,100.00
2022-07-25T01:37:47.237Z,100.00
2022-07-25T01:40:14.955Z,100.00
2022-07-25T01:42:42.722Z,100.00
2022-07-25T01:45:10.231Z,100.00
2022-07-25T01:47:37.572Z,100.00
2022-07-25T01:50:05.746Z,100.00
2022-07-25T01:52:32.587Z,100.00
2022-07-25T01:54:59.596Z,100.00
2022-07-25T01:57:30.790Z,100.00
2022-07-25T01:59:59.235Z,100.00
2022-07-25T02:02:26.012Z,100.00
2022-07-25T02:04:52.927Z,100.00
2022-07-25T02:07:19.763Z,100.00
2022-07-25T02:09:46.689Z,100.00
2022-07-25T02:12:13.657Z,100.00
2022-07-25T02:14:40.889Z,100.00
2022-07-25T02:17:08.164Z,100.00
2022-07-25T02:19:36.036Z,100.00
2022-07-25T02:22:03.620Z,100.00
2022-07-25T02:24:30.363Z,100.00
2022-07-25T02:26:57.108Z,100.00
2022-07-25T02:29:24.125Z,100.00
2022-07-25T02:31:53.053Z,100.00
2022-07-25T02:34:19.784Z,100.00
2022-07-25T02:36:46.929Z,100.00
2022-07-25T02:39:13.998Z,100.00
2022-07-25T02:41:40.873Z,100.00
2022-07-25T02:44:08.185Z,100.00
2022-07-25T02:46:35.334Z,100.00
2022-07-25T02:49:02.961Z,100.00
2022-07-25T02:51:30.013Z,100.00
2022-07-25T02:53:58.422Z,100.00
2022-07-25T02:56:30.378Z,100.00
2022-07-25T02:58:59.593Z,100.00
2022-07-25T03:01:27.012Z,100.00
2022-07-25T03:03:54.039Z,100.00
2022-07-25T03:06:20.822Z,100.00
2022-07-25T03:08:47.839Z,100.00
2022-07-25T03:11:14.758Z,100.00
2022-07-25T03:13:41.541Z,100.00
2022-07-25T03:16:09.819Z,99.71
2022-07-25T03:18:37.272Z,97.48
2022-07-25T03:21:04.268Z,94.80
2022-07-25T03:23:31.347Z,92.38
2022-07-25T03:25:58.273Z,90.82
2022-07-25T03:28:25.251Z,88.94
2022-07-25T03:30:53.119Z,85.40
2022-07-25T03:33:19.944Z,84.09
2022-07-25T03:35:47.051Z,84.54
2022-07-25T03:38:13.900Z,85.78
2022-07-25T03:40:40.739Z,86.95
2022-07-25T03:43:07.529Z,89.54
2022-07-25T03:45:34.524Z,89.14
2022-07-25T03:48:01.561Z,87.65
2022-07-25T03:50:28.374Z,89.04
2022-07-25T03:52:55.213Z,86.70
2022-07-25T03:55:21.977Z,85.97
2022-07-25T03:57:48.753Z,86.29
2022-07-25T04:00:15.753Z,86.47
2022-07-25T04:02:42.652Z,86.63
2022-07-25T04:05:09.825Z,86.41
2022-07-25T04:07:37.166Z,87.91
2022-07-25T04:10:06.175Z,84.15
2022-07-25T04:12:33.946Z,78.00
2022-07-25T04:15:01.267Z,75.12
2022-07-25T04:17:28.128Z,74.58
2022-07-25T04:19:54.955Z,75.34
2022-07-25T04:22:22.535Z,76.53
2022-07-25T04:24:49.363Z,73.76
2022-07-25T04:27:16.783Z,71.46
2022-07-25T04:29:43.725Z,68.77
2022-07-25T04:32:10.643Z,66.06
2022-07-25T04:34:37.448Z,63.52
2022-07-25T04:37:04.238Z,62.40
2022-07-25T04:39:31.076Z,61.85
2022-07-25T04:41:57.913Z,60.43
2022-07-25T04:44:24.677Z,58.68
2022-07-25T04:46:51.467Z,55.67
2022-07-25T04:49:18.289Z,55.39
2022-07-25T04:51:45.108Z,54.27
2022-07-25T04:54:11.985Z,53.71
2022-07-25T04:56:38.892Z,52.72
2022-07-25T04:59:06.162Z,51.28
2022-07-25T05:01:34.347Z,50.07
2022-07-25T05:04:01.219Z,50.41
2022-07-25T05:06:28.124Z,49.00
2022-07-25T05:08:55.471Z,49.61
2022-07-25T05:11:22.524Z,48.71
2022-07-25T05:13:49.423Z,47.78
2022-07-25T05:16:16.370Z,46.59
2022-07-25T05:18:43.324Z,46.55
2022-07-25T05:21:12.333Z,45.51
2022-07-25T05:23:39.910Z,45.53
2022-07-25T05:26:06.650Z,45.56
2022-07-25T05:28:34.016Z,45.67
2022-07-25T05:31:00.968Z,45.14
2022-07-25T05:33:27.927Z,44.98
2022-07-25T05:35:54.803Z,43.92
2022-07-25T05:38:21.783Z,43.38
2022-07-25T05:40:49.280Z,42.79
2022-07-25T05:43:16.106Z,42.18
2022-07-25T05:45:43.297Z,41.25
2022-07-25T05:48:10.191Z,40.06
2022-07-25T05:50:37.548Z,40.59
2022-07-25T05:53:04.342Z,40.21
2022-07-25T05:55:31.116Z,40.77
2022-07-25T05:57:58.087Z,40.33
2022-07-25T06:00:25.389Z,39.72
2022-07-25T06:02:52.548Z,40.05
2022-07-25T06:05:19.468Z,39.13
2022-07-25T06:07:46.339Z,38.43
2022-07-25T06:10:13.149Z,38.55
2022-07-25T06:12:39.970Z,37.23
2022-07-25T06:15:12.462Z,36.99
2022-07-25T06:17:48.900Z,36.34
2022-07-25T06:20:15.649Z,36.66
2022-07-25T06:22:42.448Z,34.94
2022-07-25T06:25:09.853Z,35.81
2022-07-25T06:27:38.342Z,34.66
2022-07-25T06:30:18.667Z,33.67
2022-07-25T06:32:46.316Z,33.93
2022-07-25T06:35:13.151Z,33.63
2022-07-25T06:37:40.445Z,33.51
2022-07-25T06:40:08.365Z,33.31
2022-07-25T06:42:46.094Z,33.85
2022-07-25T06:45:14.523Z,34.15
2022-07-25T06:47:42.624Z,34.60
2022-07-25T06:50:13.311Z,35.81
2022-07-25T06:52:40.769Z,37.21
2022-07-25T06:55:09.564Z,38.46
2022-07-25T06:57:36.917Z,38.69
2022-07-25T07:00:09.617Z,39.19
2022-07-25T07:02:48.336Z,38.01
2022-07-25T07:05:15.295Z,37.62
2022-07-25T07:07:47.175Z,37.66
2022-07-25T07:10:14.768Z,37.17
2022-07-25T07:12:41.713Z,36.76
2022-07-25T07:15:09.200Z,37.37
2022-07-25T07:17:36.042Z,37.44
2022-07-25T07:20:04.673Z,37.57
2022-07-25T07:22:31.513Z,37.14
2022-07-25T07:24:58.310Z,34.45
2022-07-25T07:27:25.254Z,33.83
2022-07-25T07:29:51.986Z,34.80
2022-07-25T07:32:18.859Z,35.32
2022-07-25T07:34:45.874Z,33.46
2022-07-25T07:37:12.611Z,33.86
2022-07-25T07:39:40.513Z,34.65
2022-07-25T07:42:07.401Z,34.47
2022-07-25T07:44:34.264Z,34.35
2022-07-25T07:47:02.807Z,34.66
2022-07-25T07:49:29.842Z,34.50
2022-07-25T07:51:56.905Z,34.20
2022-07-25T07:54:42.513Z,33.31
2022-07-25T07:57:09.345Z,34.38
2022-07-25T07:59:36.168Z,33.16
2022-07-25T08:02:02.973Z,32.51
2022-07-25T08:04:29.900Z,31.78
2022-07-25T08:06:56.668Z,31.22
2022-07-25T08:09:25.798Z,29.96
2022-07-25T08:11:53.328Z,29.52
2022-07-25T08:14:20.271Z,28.93
2022-07-25T08:16:47.072Z,28.20
2022-07-25T08:19:13.936Z,27.97
2022-07-25T08:21:40.758Z,26.75
2022-07-25T08:24:07.965Z,25.82
2022-07-25T08:26:37.157Z,25.49
2022-07-25T08:29:18.841Z,24.66
2022-07-25T08:31:46.953Z,25.40
2022-07-25T08:34:13.884Z,24.65
2022-07-25T08:36:40.885Z,23.90
2022-07-25T08:39:07.658Z,23.33
2022-07-25T08:41:34.486Z,22.34
2022-07-25T08:44:02.895Z,22.32
2022-07-25T08:46:30.296Z,22.14
2022-07-25T08:48:57.288Z,22.13
2022-07-25T08:51:24.581Z,23.52
2022-07-25T08:53:52.039Z,23.39
2022-07-25T08:56:21.644Z,23.07
2022-07-25T08:58:49.660Z,22.94
2022-07-25T09:04:56.099Z,21.83
2022-07-25T09:11:51.718Z,20.51
2022-07-25T09:14:18.580Z,19.87
2022-07-25T09:16:45.524Z,21.06
2022-07-25T09:19:15.423Z,22.14
2022-07-25T09:21:45.605Z,23.32
2022-07-25T09:24:17.917Z,24.20
2022-07-25T09:26:44.662Z,23.56
2022-07-25T09:29:31.741Z,22.34
2022-07-25T09:32:00.094Z,21.98
2022-07-25T09:34:40.797Z,22.13
2022-07-25T09:37:09.825Z,22.58
2022-07-25T09:39:47.141Z,23.11
2022-07-25T09:42:19.497Z,23.72
2022-07-25T09:44:57.904Z,24.10
2022-07-25T09:47:24.892Z,24.69
2022-07-25T09:49:52.353Z,25.52
2022-07-25T09:52:19.467Z,27.22
2022-07-25T09:54:46.272Z,28.10
2022-07-25T09:57:13.088Z,29.17
2022-07-25T09:59:39.890Z,30.44
2022-07-25T10:02:25.877Z,29.84
2022-07-25T10:05:30.162Z,26.42
2022-07-25T10:07:57.959Z,26.76
2022-07-25T10:10:27.924Z,26.58
2022-07-25T10:13:01.904Z,27.27
2022-07-25T10:15:53.605Z,27.53
2022-07-25T10:18:22.778Z,28.46
2022-07-25T10:20:52.339Z,29.27
2022-07-25T10:23:24.179Z,29.06
2022-07-25T10:26:08.825Z,29.34
2022-07-25T10:28:39.081Z,29.51
2022-07-25T10:31:22.575Z,29.78
2022-07-25T10:33:52.540Z,29.55
2022-07-25T10:36:20.257Z,27.42
2022-07-25T10:38:47.518Z,27.59
2022-07-25T10:41:16.690Z,27.37
2022-07-25T10:43:48.676Z,27.09
2022-07-25T10:46:20.530Z,28.27
2022-07-25T10:49:01.828Z,29.01
2022-07-25T10:51:32.435Z,28.14
2022-07-25T10:53:59.246Z,25.65
2022-07-25T10:56:28.651Z,24.13
2022-07-25T10:58:58.441Z,22.80
2022-07-25T11:01:34.367Z,23.82
2022-07-25T11:04:05.866Z,24.05
2022-07-25T11:06:42.635Z,24.33
2022-07-25T11:09:27.862Z,26.10
2022-07-25T11:11:57.934Z,27.76
2022-07-25T11:14:33.945Z,29.14
2022-07-25T11:17:22.563Z,30.45
2022-07-25T11:20:05.536Z,31.44
2022-07-25T11:22:33.189Z,32.46
2022-07-25T11:25:00.962Z,33.64
2022-07-25T11:27:33.715Z,33.59
2022-07-25T11:30:09.585Z,31.70
2022-07-25T11:32:43.317Z,29.42
2022-07-25T11:35:11.749Z,26.87
2022-07-25T11:37:41.178Z,24.98
2022-07-25T11:40:09.669Z,23.68
2022-07-25T11:42:45.467Z,22.79
2022-07-25T11:45:33.615Z,22.54
2022-07-25T11:48:07.499Z,22.54
2022-07-25T11:50:36.531Z,22.02
2022-07-25T11:53:06.002Z,22.42
2022-07-25T11:55:37.372Z,22.64
2022-07-25T11:58:05.567Z,24.09
2022-07-25T12:00:40.492Z,24.98
2022-07-25T12:03:12.109Z,26.49
2022-07-25T12:05:42.499Z,26.75
2022-07-25T12:08:14.758Z,25.38
2022-07-25T12:10:43.769Z,23.43
2022-07-25T12:13:22.499Z,22.77
2022-07-25T12:15:49.348Z,22.03
2022-07-25T12:18:16.118Z,20.67
2022-07-25T12:20:44.024Z,20.71
2022-07-25T12:23:13.276Z,18.80
2022-07-25T12:25:45.790Z,19.24
2022-07-25T12:28:13.161Z,20.45
2022-07-25T12:30:42.495Z,19.66
2022-07-25T12:33:09.841Z,20.80
2022-07-25T12:35:37.546Z,21.63
2022-07-25T12:38:04.918Z,23.30
2022-07-25T12:40:32.476Z,25.17
2022-07-25T12:43:01.240Z,24.86
2022-07-25T12:45:28.337Z,25.00
2022-07-25T12:47:55.840Z,26.13
2022-07-25T12:50:25.633Z,26.01
2022-07-25T12:52:52.960Z,26.70
2022-07-25T12:55:21.197Z,28.26
2022-07-25T12:57:48.175Z,29.01
2022-07-25T13:00:18.585Z,28.54
2022-07-25T13:02:45.555Z,26.78
2022-07-25T13:05:12.807Z,25.74
2022-07-25T13:07:39.970Z,24.59
2022-07-25T13:10:07.543Z,24.33
2022-07-25T13:12:35.514Z,25.13
2022-07-25T13:15:02.815Z,26.05
2022-07-25T13:17:29.660Z,26.03
2022-07-25T13:19:57.195Z,24.91
2022-07-25T13:22:24.853Z,25.19
2022-07-25T13:24:52.034Z,26.18
2022-07-25T13:27:20.307Z,27.82
2022-07-25T13:29:47.400Z,28.49
2022-07-25T13:32:14.257Z,29.78
2022-07-25T13:34:41.135Z,30.57
2022-07-25T13:37:08.095Z,30.50
2022-07-25T13:39:35.894Z,29.29
2022-07-25T13:42:03.177Z,28.17
2022-07-25T13:44:29.961Z,26.63
2022-07-25T13:46:58.617Z,26.35
2022-07-25T13:49:26.096Z,25.63
2022-07-25T13:51:52.948Z,24.57
2022-07-25T13:54:19.781Z,24.83
2022-07-25T13:56:47.592Z,25.74
2022-07-25T13:59:20.439Z,26.18
2022-07-25T14:01:48.386Z,26.97
2022-07-25T14:04:15.279Z,28.11
2022-07-25T14:06:42.294Z,28.95
2022-07-25T14:09:09.776Z,29.46
2022-07-25T14:11:36.966Z,29.21
2022-07-25T14:14:03.847Z,29.23
2022-07-25T14:16:30.783Z,28.67
2022-07-25T14:18:57.738Z,27.16
2022-07-25T14:21:25.409Z,27.00
2022-07-25T14:23:52.507Z,26.82
2022-07-25T14:26:19.384Z,27.23
2022-07-25T14:28:46.346Z,27.58
2022-07-25T14:31:13.280Z,28.16
2022-07-25T14:33:40.655Z,28.61
2022-07-25T14:36:10.010Z,30.03
2022-07-25T14:38:37.307Z,30.94
2022-07-25T14:41:09.173Z,31.44
2022-07-25T14:43:38.994Z,31.11
2022-07-25T14:46:05.897Z,31.84
2022-07-25T14:48:32.736Z,32.19
2022-07-25T14:50:59.647Z,33.38
2022-07-25T14:53:26.419Z,33.51
2022-07-25T14:55:53.619Z,34.53
2022-07-25T14:58:20.440Z,34.61
2022-07-25T15:00:47.575Z,34.75
2022-07-25T15:03:15.506Z,34.70
2022-07-25T15:05:42.336Z,35.20
2022-07-25T15:08:09.425Z,35.70
2022-07-25T15:10:36.321Z,36.32
2022-07-25T15:13:29.438Z,36.86
2022-07-25T15:15:49.924Z,36.69
2022-07-25T15:18:16.685Z,35.48
2022-07-25T15:20:43.474Z,35.84
2022-07-25T15:23:10.330Z,36.41
2022-07-25T15:28:24.410Z,36.54
2022-07-25T15:30:51.605Z,36.18
2022-07-25T15:33:19.149Z,36.34
2022-07-25T15:35:46.624Z,36.82
2022-07-25T15:38:15.908Z,37.23
2022-07-25T15:40:44.081Z,38.52
2022-07-25T15:43:11.956Z,38.58
2022-07-25T15:45:40.813Z,39.50
2022-07-25T15:48:09.510Z,40.10
2022-07-25T15:50:39.469Z,40.88
2022-07-25T15:53:06.885Z,41.59
2022-07-25T15:55:33.941Z,41.54
2022-07-25T15:58:01.231Z,41.78
2022-07-25T16:00:29.784Z,41.26
2022-07-25T16:02:57.077Z,41.44
2022-07-25T16:05:24.188Z,41.53
2022-07-25T16:07:51.037Z,41.88
2022-07-25T16:10:18.327Z,42.00
2022-07-25T16:12:45.607Z,41.81
2022-07-25T16:15:13.088Z,42.24
2022-07-25T16:17:39.890Z,42.71
2022-07-25T16:20:09.216Z,42.39
2022-07-25T16:22:36.362Z,42.80
2022-07-25T16:25:04.499Z,43.56
2022-07-25T16:27:31.550Z,43.62
2022-07-25T16:29:58.563Z,42.83
2022-07-25T16:32:25.457Z,43.34
2022-07-25T16:34:52.452Z,43.69
2022-07-25T16:37:20.245Z,44.80
2022-07-25T16:39:47.074Z,44.92
2022-07-25T16:42:13.842Z,45.49
2022-07-25T16:44:41.062Z,46.13
2022-07-25T16:47:08.400Z,46.60
2022-07-25T16:49:35.236Z,46.96
2022-07-25T16:52:02.059Z,47.52
2022-07-25T16:54:29.543Z,47.86
2022-07-25T16:56:59.672Z,48.55
2022-07-25T16:59:27.246Z,48.66
2022-07-25T17:01:54.235Z,49.39
2022-07-25T17:04:21.149Z,49.73
2022-07-25T17:06:49.167Z,50.15
2022-07-25T17:09:16.021Z,50.67
2022-07-25T17:11:43.349Z,51.18
2022-07-25T17:14:10.169Z,51.73
2022-07-25T17:16:37.145Z,51.96
2022-07-25T17:19:04.148Z,52.36
2022-07-25T17:21:31.126Z,52.67
2022-07-25T17:23:57.940Z,53.28
2022-07-25T17:26:24.766Z,53.61
2022-07-25T17:28:52.080Z,54.20
2022-07-25T17:31:18.979Z,54.85
2022-07-25T17:33:45.808Z,55.43
2022-07-25T17:36:12.753Z,55.76
2022-07-25T17:38:39.727Z,56.58
2022-07-25T17:41:06.772Z,57.39
2022-07-25T17:43:33.589Z,58.17
2022-07-25T17:46:00.544Z,58.67
2022-07-25T17:48:27.442Z,59.56
2022-07-25T17:50:54.393Z,60.26
2022-07-25T17:53:21.327Z,60.88
2022-07-25T17:55:48.388Z,61.50
2022-07-25T17:58:15.292Z,61.84
2022-07-25T18:00:42.174Z,62.18
2022-07-25T18:03:09.271Z,62.61
2022-07-25T18:05:36.082Z,63.02
2022-07-25T18:08:03.245Z,63.69
2022-07-25T18:10:30.390Z,64.77
2022-07-25T18:13:00.269Z,65.63
2022-07-25T18:15:27.149Z,65.77
2022-07-25T18:17:54.185Z,66.07
2022-07-25T18:20:21.221Z,66.14
2022-07-25T18:22:48.242Z,66.41
2022-07-25T18:25:15.583Z,66.47
2022-07-25T18:27:44.625Z,66.68
2022-07-25T18:30:13.065Z,66.88
2022-07-25T18:32:40.080Z,67.20
2022-07-25T18:35:08.032Z,67.25
2022-07-25T18:37:37.035Z,67.50
2022-07-25T18:40:08.437Z,67.54
2022-07-25T18:42:35.849Z,67.82
2022-07-25T18:45:03.838Z,68.07
2022-07-25T18:47:34.858Z,67.96
2022-07-25T18:50:02.766Z,68.00
2022-07-25T18:52:36.085Z,68.11
2022-07-25T18:55:05.377Z,68.40
2022-07-25T18:57:32.298Z,68.31
2022-07-25T19:00:02.840Z,68.51
2022-07-25T19:02:30.470Z,68.68
2022-07-25T19:04:57.396Z,68.81
2022-07-25T19:07:25.953Z,68.73
2022-07-25T19:09:52.824Z,68.84
2022-07-25T19:12:19.647Z,68.92
2022-07-25T19:14:46.494Z,68.91
2022-07-25T19:17:13.485Z,69.30
2022-07-25T19:19:40.341Z,69.11
2022-07-25T19:22:08.012Z,69.05
2022-07-25T19:24:34.795Z,69.36
2022-07-25T19:27:04.361Z,69.98
2022-07-25T19:29:31.386Z,70.49
2022-07-25T19:31:58.273Z,70.89
2022-07-25T19:34:25.135Z,71.37
2022-07-25T19:36:52.209Z,71.94
2022-07-25T19:39:19.009Z,72.29
2022-07-25T19:41:48.376Z,73.03
2022-07-25T19:44:15.331Z,73.44
2022-07-25T19:46:42.450Z,74.13
2022-07-25T19:49:09.388Z,74.58
2022-07-25T19:51:36.555Z,74.93
2022-07-25T19:54:04.076Z,75.83
2022-07-25T19:56:31.858Z,76.20
2022-07-25T19:58:58.643Z,76.51
2022-07-25T20:01:25.945Z,76.84
2022-07-25T20:03:52.771Z,77.01
2022-07-25T20:06:20.805Z,77.27
2022-07-25T20:08:48.032Z,77.29
2022-07-25T20:11:15.587Z,77.30
2022-07-25T20:13:42.760Z,77.41
2022-07-25T20:16:10.057Z,77.36
2022-07-25T20:18:36.932Z,77.34
2022-07-25T20:21:04.667Z,77.33
2022-07-25T20:23:31.570Z,77.22
2022-07-25T20:25:58.508Z,77.16
2022-07-25T20:28:25.289Z,77.04
2022-07-25T20:30:52.262Z,76.80
2022-07-25T20:33:19.238Z,76.91
2022-07-25T20:35:46.815Z,76.87
2022-07-25T20:38:13.641Z,77.18
2022-07-25T20:40:48.123Z,77.62
2022-07-25T20:43:16.299Z,77.94
2022-07-25T20:45:43.214Z,78.77
2022-07-25T20:48:10.109Z,79.31
2022-07-25T20:50:37.708Z,79.87
2022-07-25T20:53:06.175Z,80.34
2022-07-25T20:55:33.867Z,81.15
2022-07-25T20:58:01.240Z,81.51
2022-07-25T21:00:30.414Z,82.10
2022-07-25T21:02:58.492Z,82.60
2022-07-25T21:05:25.772Z,83.07
2022-07-25T21:07:53.061Z,83.51
2022-07-25T21:10:20.250Z,83.92
2022-07-25T21:12:47.409Z,84.46
2022-07-25T21:15:14.950Z,84.66
2022-07-25T21:17:42.067Z,85.30
2022-07-25T21:20:11.649Z,85.52
2022-07-25T21:22:39.102Z,85.71
2022-07-25T21:25:08.174Z,86.42
2022-07-25T21:27:36.924Z,86.47
2022-07-25T21:30:09.340Z,86.94
2022-07-25T21:32:36.320Z,87.03
2022-07-25T21:35:04.986Z,87.38
2022-07-25T21:37:32.201Z,87.12
2022-07-25T21:39:59.264Z,87.66
2022-07-25T21:42:26.130Z,87.76
2022-07-25T21:44:52.885Z,88.23
2022-07-25T21:47:19.870Z,88.15
2022-07-25T21:52:34.759Z,88.73
2022-07-25T21:55:03.706Z,89.04
2022-07-25T21:57:31.145Z,89.60
2022-07-25T21:59:58.032Z,89.62
2022-07-25T22:02:24.847Z,90.11
2022-07-25T22:04:51.765Z,90.42
2022-07-25T22:07:18.952Z,90.29
2022-07-25T22:09:45.848Z,90.45
2022-07-25T22:12:12.900Z,90.53
2022-07-25T22:14:39.766Z,90.52
2022-07-25T22:17:06.595Z,90.49
2022-07-25T22:19:33.841Z,90.57
2022-07-25T22:22:00.683Z,90.57
2022-07-25T22:24:27.537Z,90.36
2022-07-25T22:26:54.459Z,90.56
2022-07-25T22:29:21.274Z,90.42
2022-07-25T22:31:48.702Z,90.47
2022-07-25T22:34:15.651Z,90.75
2022-07-25T22:36:42.472Z,90.58
2022-07-25T22:39:09.817Z,90.74
2022-07-25T22:41:36.873Z,90.91
2022-07-25T22:44:03.836Z,91.26
2022-07-25T22:46:31.401Z,91.33
2022-07-25T22:48:59.576Z,91.33
2022-07-25T22:51:27.857Z,91.65
2022-07-25T22:53:55.409Z,91.75
2022-07-25T22:56:22.516Z,92.06
2022-07-25T22:58:49.546Z,92.54
2022-07-25T23:01:17.918Z,92.83
2022-07-25T23:03:45.546Z,92.65
2022-07-25T23:06:12.929Z,92.76
2022-07-25T23:08:39.752Z,92.65
2022-07-25T23:11:06.598Z,92.62
2022-07-25T23:13:34.509Z,93.07
2022-07-25T23:16:03.298Z,93.29
2022-07-25T23:18:30.985Z,93.35
2022-07-25T23:20:58.282Z,93.47
2022-07-25T23:23:25.508Z,93.92
2022-07-25T23:25:52.335Z,94.24
2022-07-25T23:28:19.403Z,94.07
2022-07-25T23:30:46.161Z,93.70
2022-07-25T23:33:13.068Z,93.28
2022-07-25T23:35:39.962Z,93.64
2022-07-25T23:38:09.703Z,94.02
2022-07-25T23:40:36.589Z,95.09
2022-07-25T23:43:03.425Z,95.30
2022-07-25T23:45:30.398Z,95.09
2022-07-25T23:47:57.509Z,95.28
2022-07-25T23:50:24.887Z,95.99
2022-07-25T23:52:52.139Z,95.93
2022-07-25T23:55:19.930Z,95.93
2022-07-25T23:57:46.760Z,96.09
